sensor_id;sensor_type;location;lat;lon;timestamp;pressure;altitude;pressure_sealevel;temperature;humidity
75945;BME280;64628;50.104;14.614;2023-09-30T00:01:40;98973.51;;;24.47;31.30
75945;BME280;64628;50.104;14.614;2023-09-30T00:04:06;98977.40;;;24.45;31.49
75945;BME280;64628;50.104;14.614;2023-09-30T00:06:31;98984.44;;;24.50;31.57
75945;BME280;64628;50.104;14.614;2023-09-30T00:08:56;98985.44;;;24.30;32.01
75945;BME280;64628;50.104;14.614;2023-09-30T00:11:21;98982.13;;;24.64;32.46
75945;BME280;64628;50.104;14.614;2023-09-30T00:13:46;98983.44;;;24.16;32.62
75945;BME280;64628;50.104;14.614;2023-09-30T00:16:12;98987.36;;;24.24;32.92
75945;BME280;64628;50.104;14.614;2023-09-30T00:18:38;98989.48;;;24.56;33.35
75945;BME280;64628;50.104;14.614;2023-09-30T00:21:03;98987.47;;;24.25;33.69
75945;BME280;64628;50.104;14.614;2023-09-30T00:23:29;98991.68;;;24.53;33.80
75945;BME280;64628;50.104;14.614;2023-09-30T00:25:55;98994.03;;;24.70;33.80
75945;BME280;64628;50.104;14.614;2023-09-30T00:28:20;98991.21;;;24.25;34.27
75945;BME280;64628;50.104;14.614;2023-09-30T00:30:46;98989.70;;;24.63;34.59
75945;BME280;64628;50.104;14.614;2023-09-30T00:33:11;98988.01;;;24.72;34.52
75945;BME280;64628;50.104;14.614;2023-09-30T00:35:37;98990.41;;;24.31;34.43
75945;BME280;64628;50.104;14.614;2023-09-30T00:38:03;98996.00;;;24.63;34.38
75945;BME280;64628;50.104;14.614;2023-09-30T00:40:28;98992.19;;;24.14;34.72
75945;BME280;64628;50.104;14.614;2023-09-30T00:42:53;98990.84;;;24.29;34.95
75945;BME280;64628;50.104;14.614;2023-09-30T00:45:19;98987.68;;;24.13;35.62
75945;BME280;64628;50.104;14.614;2023-09-30T00:47:44;98992.36;;;24.35;36.31
75945;BME280;64628;50.104;14.614;2023-09-30T00:50:09;98995.45;;;24.35;36.48
75945;BME280;64628;50.104;14.614;2023-09-30T00:52:35;99000.28;;;24.10;36.45
75945;BME280;64628;50.104;14.614;2023-09-30T00:54:59;99002.33;;;24.23;36.45
75945;BME280;64628;50.104;14.614;2023-09-30T00:57:24;99007.67;;;23.94;36.49
75945;BME280;64628;50.104;14.614;2023-09-30T00:59:51;99006.98;;;24.26;36.58
75945;BME280;64628;50.104;14.614;2023-09-30T01:02:15;99000.61;;;23.93;36.65
75945;BME280;64628;50.104;14.614;2023-09-30T01:04:40;99000.51;;;23.83;36.33
75945;BME280;64628;50.104;14.614;2023-09-30T01:07:05;99002.55;;;23.98;35.86
75945;BME280;64628;50.104;14.614;2023-09-30T01:09:31;99006.95;;;23.86;35.75
75945;BME280;64628;50.104;14.614;2023-09-30T01:11:57;99010.16;;;23.80;35.73
75945;BME280;64628;50.104;14.614;2023-09-30T01:14:26;99016.77;;;23.73;35.45
75945;BME280;64628;50.104;14.614;2023-09-30T01:16:47;99018.71;;;23.67;35.34
75945;BME280;64628;50.104;14.614;2023-09-30T01:19:13;99025.42;;;23.46;35.35
75945;BME280;64628;50.104;14.614;2023-09-30T01:21:38;99026.26;;;23.50;35.15
75945;BME280;64628;50.104;14.614;2023-09-30T01:24:04;99020.78;;;23.56;35.08
75945;BME280;64628;50.104;14.614;2023-09-30T01:26:29;99019.93;;;23.79;35.10
75945;BME280;64628;50.104;14.614;2023-09-30T01:28:55;99022.78;;;23.62;34.80
75945;BME280;64628;50.104;14.614;2023-09-30T01:31:20;99021.29;;;23.38;34.76
75945;BME280;64628;50.104;14.614;2023-09-30T01:33:46;99020.19;;;23.49;35.07
75945;BME280;64628;50.104;14.614;2023-09-30T01:36:12;99014.01;;;23.27;34.84
75945;BME280;64628;50.104;14.614;2023-09-30T01:38:37;99016.34;;;23.27;34.82
75945;BME280;64628;50.104;14.614;2023-09-30T01:41:02;99020.84;;;23.16;34.88
75945;BME280;64628;50.104;14.614;2023-09-30T01:43:28;99017.13;;;23.19;34.63
75945;BME280;64628;50.104;14.614;2023-09-30T01:45:53;99015.35;;;23.15;34.73
75945;BME280;64628;50.104;14.614;2023-09-30T01:48:19;99016.77;;;23.40;34.52
75945;BME280;64628;50.104;14.614;2023-09-30T01:50:44;99020.12;;;23.46;34.60
75945;BME280;64628;50.104;14.614;2023-09-30T01:53:10;99021.50;;;23.21;34.63
75945;BME280;64628;50.104;14.614;2023-09-30T01:55:35;99028.64;;;23.01;34.58
75945;BME280;64628;50.104;14.614;2023-09-30T01:58:01;99028.67;;;22.89;34.81
75945;BME280;64628;50.104;14.614;2023-09-30T02:00:26;99027.88;;;23.41;34.71
75945;BME280;64628;50.104;14.614;2023-09-30T02:02:52;99024.79;;;23.17;34.73
75945;BME280;64628;50.104;14.614;2023-09-30T02:05:17;99026.66;;;23.00;34.63
75945;BME280;64628;50.104;14.614;2023-09-30T02:07:43;99028.03;;;23.28;34.38
75945;BME280;64628;50.104;14.614;2023-09-30T02:10:09;99030.51;;;22.86;34.57
75945;BME280;64628;50.104;14.614;2023-09-30T02:12:33;99037.34;;;23.01;34.71
75945;BME280;64628;50.104;14.614;2023-09-30T02:14:59;99038.46;;;22.80;34.78
75945;BME280;64628;50.104;14.614;2023-09-30T02:17:24;99038.92;;;23.21;34.56
75945;BME280;64628;50.104;14.614;2023-09-30T02:19:49;99044.97;;;23.06;34.88
75945;BME280;64628;50.104;14.614;2023-09-30T02:22:15;99046.69;;;23.11;34.74
75945;BME280;64628;50.104;14.614;2023-09-30T02:24:41;99049.51;;;22.91;34.68
75945;BME280;64628;50.104;14.614;2023-09-30T02:27:06;99051.41;;;23.17;34.48
75945;BME280;64628;50.104;14.614;2023-09-30T02:29:31;99052.29;;;22.55;34.62
75945;BME280;64628;50.104;14.614;2023-09-30T02:31:56;99056.41;;;22.90;34.79
75945;BME280;64628;50.104;14.614;2023-09-30T02:34:22;99064.54;;;22.83;34.58
75945;BME280;64628;50.104;14.614;2023-09-30T02:36:47;99069.84;;;22.90;34.86
75945;BME280;64628;50.104;14.614;2023-09-30T02:39:12;99070.56;;;22.45;34.77
75945;BME280;64628;50.104;14.614;2023-09-30T02:41:38;99074.84;;;22.44;34.84
75945;BME280;64628;50.104;14.614;2023-09-30T02:44:04;99076.93;;;22.68;34.80
75945;BME280;64628;50.104;14.614;2023-09-30T02:46:29;99075.78;;;22.86;34.86
75945;BME280;64628;50.104;14.614;2023-09-30T02:48:54;99080.11;;;22.62;34.87
75945;BME280;64628;50.104;14.614;2023-09-30T02:51:19;99086.52;;;22.64;35.10
75945;BME280;64628;50.104;14.614;2023-09-30T02:53:45;99088.64;;;22.67;35.04
75945;BME280;64628;50.104;14.614;2023-09-30T02:56:10;99086.56;;;22.46;34.97
75945;BME280;64628;50.104;14.614;2023-09-30T02:58:36;99089.81;;;22.58;34.88
75945;BME280;64628;50.104;14.614;2023-09-30T03:01:02;99094.63;;;22.74;35.01
75945;BME280;64628;50.104;14.614;2023-09-30T03:03:27;99098.22;;;22.11;35.13
75945;BME280;64628;50.104;14.614;2023-09-30T03:05:52;99095.03;;;22.66;35.04
75945;BME280;64628;50.104;14.614;2023-09-30T03:08:17;99100.09;;;22.54;35.27
75945;BME280;64628;50.104;14.614;2023-09-30T03:10:42;99101.59;;;22.46;35.32
75945;BME280;64628;50.104;14.614;2023-09-30T03:13:08;99104.53;;;22.35;35.48
75945;BME280;64628;50.104;14.614;2023-09-30T03:15:33;99106.39;;;22.27;35.48
75945;BME280;64628;50.104;14.614;2023-09-30T03:17:58;99107.90;;;22.31;35.46
75945;BME280;64628;50.104;14.614;2023-09-30T03:20:24;99108.92;;;22.35;35.69
75945;BME280;64628;50.104;14.614;2023-09-30T03:22:49;99114.91;;;22.30;35.77
75945;BME280;64628;50.104;14.614;2023-09-30T03:25:17;99116.56;;;22.17;35.63
75945;BME280;64628;50.104;14.614;2023-09-30T03:27:41;99119.44;;;22.15;35.64
75945;BME280;64628;50.104;14.614;2023-09-30T03:30:07;99117.93;;;22.24;35.53
75945;BME280;64628;50.104;14.614;2023-09-30T03:32:31;99118.16;;;22.20;35.60
75945;BME280;64628;50.104;14.614;2023-09-30T03:34:57;99121.79;;;22.21;35.59
75945;BME280;64628;50.104;14.614;2023-09-30T03:37:22;99127.25;;;22.27;35.47
75945;BME280;64628;50.104;14.614;2023-09-30T03:39:47;99131.85;;;22.15;35.67
75945;BME280;64628;50.104;14.614;2023-09-30T03:42:12;99133.55;;;22.46;35.59
75945;BME280;64628;50.104;14.614;2023-09-30T03:44:37;99134.59;;;22.23;35.59
75945;BME280;64628;50.104;14.614;2023-09-30T03:47:03;99135.33;;;22.27;35.52
75945;BME280;64628;50.104;14.614;2023-09-30T03:49:28;99136.60;;;22.26;35.53
75945;BME280;64628;50.104;14.614;2023-09-30T03:51:53;99138.81;;;22.20;35.53
75945;BME280;64628;50.104;14.614;2023-09-30T03:54:19;99144.16;;;22.49;35.60
75945;BME280;64628;50.104;14.614;2023-09-30T03:56:45;99147.36;;;22.26;35.69
75945;BME280;64628;50.104;14.614;2023-09-30T03:59:10;99151.34;;;22.27;35.57
75945;BME280;64628;50.104;14.614;2023-09-30T04:01:35;99155.49;;;22.27;35.50
75945;BME280;64628;50.104;14.614;2023-09-30T04:04:00;99159.29;;;22.25;35.46
75945;BME280;64628;50.104;14.614;2023-09-30T04:06:25;99163.83;;;22.09;35.68
75945;BME280;64628;50.104;14.614;2023-09-30T04:08:51;99166.36;;;22.08;35.80
75945;BME280;64628;50.104;14.614;2023-09-30T04:11:17;99170.25;;;22.23;35.89
75945;BME280;64628;50.104;14.614;2023-09-30T04:13:42;99176.08;;;22.01;35.85
75945;BME280;64628;50.104;14.614;2023-09-30T04:16:07;99177.92;;;21.97;35.99
75945;BME280;64628;50.104;14.614;2023-09-30T04:18:32;99184.32;;;22.28;35.90
75945;BME280;64628;50.104;14.614;2023-09-30T04:20:57;99188.10;;;22.01;35.96
75945;BME280;64628;50.104;14.614;2023-09-30T04:23:23;99192.30;;;22.27;35.93
75945;BME280;64628;50.104;14.614;2023-09-30T04:25:48;99195.45;;;22.20;35.97
75945;BME280;64628;50.104;14.614;2023-09-30T04:28:13;99201.70;;;22.00;35.92
75945;BME280;64628;50.104;14.614;2023-09-30T04:30:39;99206.75;;;22.11;36.17
75945;BME280;64628;50.104;14.614;2023-09-30T04:33:04;99212.04;;;21.77;36.34
75945;BME280;64628;50.104;14.614;2023-09-30T04:35:29;99221.39;;;21.81;36.33
75945;BME280;64628;50.104;14.614;2023-09-30T04:37:55;99222.09;;;21.91;36.68
75945;BME280;64628;50.104;14.614;2023-09-30T04:40:21;99228.18;;;22.15;36.81
75945;BME280;64628;50.104;14.614;2023-09-30T04:42:46;99230.66;;;21.67;37.07
75945;BME280;64628;50.104;14.614;2023-09-30T04:45:12;99236.73;;;21.67;37.56
75945;BME280;64628;50.104;14.614;2023-09-30T04:47:36;99241.03;;;21.71;37.61
75945;BME280;64628;50.104;14.614;2023-09-30T04:50:02;99242.97;;;21.53;37.81
75945;BME280;64628;50.104;14.614;2023-09-30T04:52:27;99243.16;;;21.74;38.02
75945;BME280;64628;50.104;14.614;2023-09-30T04:54:53;99244.72;;;21.86;38.29
75945;BME280;64628;50.104;14.614;2023-09-30T04:57:19;99253.37;;;21.76;38.56
75945;BME280;64628;50.104;14.614;2023-09-30T04:59:45;99252.48;;;21.70;38.84
75945;BME280;64628;50.104;14.614;2023-09-30T05:02:09;99248.34;;;21.66;39.07
75945;BME280;64628;50.104;14.614;2023-09-30T05:04:35;99248.02;;;21.74;38.95
75945;BME280;64628;50.104;14.614;2023-09-30T05:07:00;99258.14;;;21.48;39.01
75945;BME280;64628;50.104;14.614;2023-09-30T05:09:25;99262.42;;;21.35;39.41
75945;BME280;64628;50.104;14.614;2023-09-30T05:11:50;99266.42;;;21.55;39.47
75945;BME280;64628;50.104;14.614;2023-09-30T05:14:16;99268.88;;;21.10;39.72
75945;BME280;64628;50.104;14.614;2023-09-30T05:16:41;99275.23;;;21.37;39.18
75945;BME280;64628;50.104;14.614;2023-09-30T05:19:06;99282.64;;;21.24;39.31
75945;BME280;64628;50.104;14.614;2023-09-30T05:21:31;99292.69;;;21.01;39.25
75945;BME280;64628;50.104;14.614;2023-09-30T05:23:56;99301.74;;;21.37;39.09
75945;BME280;64628;50.104;14.614;2023-09-30T05:26:21;99311.89;;;20.97;38.92
75945;BME280;64628;50.104;14.614;2023-09-30T05:28:46;99314.17;;;20.73;39.09
75945;BME280;64628;50.104;14.614;2023-09-30T05:31:12;99313.66;;;21.25;39.01
75945;BME280;64628;50.104;14.614;2023-09-30T05:33:36;99313.09;;;20.77;38.99
75945;BME280;64628;50.104;14.614;2023-09-30T05:36:02;99318.93;;;20.60;39.23
75945;BME280;64628;50.104;14.614;2023-09-30T05:38:27;99321.01;;;20.78;39.48
75945;BME280;64628;50.104;14.614;2023-09-30T05:40:52;99329.22;;;20.62;39.75
75945;BME280;64628;50.104;14.614;2023-09-30T05:43:17;99337.48;;;20.62;40.31
75945;BME280;64628;50.104;14.614;2023-09-30T05:45:42;99331.72;;;20.36;40.89
75945;BME280;64628;50.104;14.614;2023-09-30T05:48:07;99333.69;;;20.28;41.06
75945;BME280;64628;50.104;14.614;2023-09-30T05:50:33;99339.10;;;20.28;40.85
75945;BME280;64628;50.104;14.614;2023-09-30T05:52:58;99349.30;;;20.44;39.85
75945;BME280;64628;50.104;14.614;2023-09-30T05:55:24;99348.05;;;20.03;40.13
75945;BME280;64628;50.104;14.614;2023-09-30T05:57:50;99344.31;;;20.15;38.16
75945;BME280;64628;50.104;14.614;2023-09-30T06:00:15;99346.53;;;20.26;38.43
75945;BME280;64628;50.104;14.614;2023-09-30T06:02:39;99344.18;;;19.99;38.36
75945;BME280;64628;50.104;14.614;2023-09-30T06:05:05;99342.74;;;19.85;37.63
75945;BME280;64628;50.104;14.614;2023-09-30T06:07:30;99341.19;;;19.91;37.01
75945;BME280;64628;50.104;14.614;2023-09-30T06:09:55;99349.12;;;19.82;36.84
75945;BME280;64628;50.104;14.614;2023-09-30T06:12:20;99355.20;;;19.95;36.17
75945;BME280;64628;50.104;14.614;2023-09-30T06:14:45;99357.57;;;20.16;35.87
75945;BME280;64628;50.104;14.614;2023-09-30T06:17:11;99364.36;;;19.81;35.97
75945;BME280;64628;50.104;14.614;2023-09-30T06:19:36;99363.37;;;19.64;36.32
75945;BME280;64628;50.104;14.614;2023-09-30T06:22:01;99370.86;;;19.76;35.64
75945;BME280;64628;50.104;14.614;2023-09-30T06:24:26;99370.82;;;19.78;35.06
75945;BME280;64628;50.104;14.614;2023-09-30T06:26:51;99378.17;;;19.59;34.91
75945;BME280;64628;50.104;14.614;2023-09-30T06:29:17;99386.64;;;19.77;34.55
75945;BME280;64628;50.104;14.614;2023-09-30T06:31:42;99386.98;;;19.75;34.28
75945;BME280;64628;50.104;14.614;2023-09-30T06:34:08;99391.44;;;19.96;35.02
75945;BME280;64628;50.104;14.614;2023-09-30T06:36:33;99393.53;;;20.09;36.82
75945;BME280;64628;50.104;14.614;2023-09-30T06:38:58;99396.49;;;19.57;37.41
75945;BME280;64628;50.104;14.614;2023-09-30T06:41:24;99395.40;;;19.84;38.00
75945;BME280;64628;50.104;14.614;2023-09-30T06:43:49;99395.87;;;19.68;38.13
75945;BME280;64628;50.104;14.614;2023-09-30T06:46:15;99395.49;;;19.64;37.54
75945;BME280;64628;50.104;14.614;2023-09-30T06:48:40;99396.56;;;19.60;37.94
75945;BME280;64628;50.104;14.614;2023-09-30T06:51:06;99402.84;;;19.70;37.01
75945;BME280;64628;50.104;14.614;2023-09-30T06:53:33;99396.50;;;19.17;37.30
75945;BME280;64628;50.104;14.614;2023-09-30T06:55:57;99402.12;;;19.33;36.70
75945;BME280;64628;50.104;14.614;2023-09-30T06:58:29;99411.21;;;19.34;36.58
75945;BME280;64628;50.104;14.614;2023-09-30T07:00:50;99415.66;;;19.60;36.31
75945;BME280;64628;50.104;14.614;2023-09-30T07:03:16;99424.00;;;19.94;36.30
75945;BME280;64628;50.104;14.614;2023-09-30T07:05:40;99419.06;;;19.69;36.15
75945;BME280;64628;50.104;14.614;2023-09-30T07:08:07;99426.86;;;19.76;35.25
75945;BME280;64628;50.104;14.614;2023-09-30T07:10:31;99429.84;;;19.60;35.76
75945;BME280;64628;50.104;14.614;2023-09-30T07:12:57;99436.53;;;19.95;34.87
75945;BME280;64628;50.104;14.614;2023-09-30T07:15:21;99447.80;;;19.94;34.83
75945;BME280;64628;50.104;14.614;2023-09-30T07:17:48;99452.29;;;19.74;34.56
75945;BME280;64628;50.104;14.614;2023-09-30T07:20:12;99459.97;;;19.54;34.79
75945;BME280;64628;50.104;14.614;2023-09-30T07:22:37;99468.72;;;19.71;34.68
75945;BME280;64628;50.104;14.614;2023-09-30T07:25:03;99472.24;;;20.01;35.38
75945;BME280;64628;50.104;14.614;2023-09-30T07:27:28;99478.16;;;20.30;35.01
75945;BME280;64628;50.104;14.614;2023-09-30T07:29:53;99479.77;;;19.88;35.25
75945;BME280;64628;50.104;14.614;2023-09-30T07:32:18;99482.84;;;19.71;36.38
75945;BME280;64628;50.104;14.614;2023-09-30T07:34:43;99486.74;;;19.97;36.19
75945;BME280;64628;50.104;14.614;2023-09-30T07:37:15;99491.76;;;19.84;35.51
75945;BME280;64628;50.104;14.614;2023-09-30T07:39:35;99495.61;;;19.50;36.44
75945;BME280;64628;50.104;14.614;2023-09-30T07:42:00;99501.09;;;19.56;36.65
75945;BME280;64628;50.104;14.614;2023-09-30T07:44:25;99502.45;;;19.98;36.55
75945;BME280;64628;50.104;14.614;2023-09-30T07:46:50;99506.70;;;19.78;36.06
75945;BME280;64628;50.104;14.614;2023-09-30T07:49:15;99507.38;;;19.56;35.70
75945;BME280;64628;50.104;14.614;2023-09-30T07:51:40;99511.90;;;19.50;36.11
75945;BME280;64628;50.104;14.614;2023-09-30T07:54:06;99512.57;;;19.77;35.76
75945;BME280;64628;50.104;14.614;2023-09-30T07:56:31;99513.71;;;19.58;36.30
75945;BME280;64628;50.104;14.614;2023-09-30T07:58:57;99520.24;;;19.70;36.44
75945;BME280;64628;50.104;14.614;2023-09-30T08:01:22;99521.88;;;19.85;35.75
75945;BME280;64628;50.104;14.614;2023-09-30T08:03:47;99522.78;;;19.85;34.96
75945;BME280;64628;50.104;14.614;2023-09-30T08:06:13;99523.01;;;19.80;34.91
75945;BME280;64628;50.104;14.614;2023-09-30T08:08:38;99521.21;;;19.81;35.06
75945;BME280;64628;50.104;14.614;2023-09-30T08:11:03;99522.30;;;20.20;34.81
75945;BME280;64628;50.104;14.614;2023-09-30T08:13:29;99522.07;;;20.03;35.18
75945;BME280;64628;50.104;14.614;2023-09-30T08:15:54;99518.43;;;20.08;34.99
75945;BME280;64628;50.104;14.614;2023-09-30T08:18:19;99514.96;;;20.28;34.85
75945;BME280;64628;50.104;14.614;2023-09-30T08:20:45;99511.41;;;20.19;35.23
75945;BME280;64628;50.104;14.614;2023-09-30T08:23:10;99508.15;;;20.06;34.61
75945;BME280;64628;50.104;14.614;2023-09-30T08:25:35;99505.52;;;20.26;34.89
75945;BME280;64628;50.104;14.614;2023-09-30T08:28:01;99503.11;;;20.25;34.72
75945;BME280;64628;50.104;14.614;2023-09-30T08:30:26;99502.21;;;20.43;34.98
75945;BME280;64628;50.104;14.614;2023-09-30T08:32:52;99496.01;;;20.69;34.60
75945;BME280;64628;50.104;14.614;2023-09-30T08:35:17;99495.12;;;20.97;34.47
75945;BME280;64628;50.104;14.614;2023-09-30T08:37:47;99501.23;;;20.92;34.18
75945;BME280;64628;50.104;14.614;2023-09-30T08:40:08;99501.34;;;20.96;34.16
75945;BME280;64628;50.104;14.614;2023-09-30T08:42:34;99511.49;;;21.23;33.29
75945;BME280;64628;50.104;14.614;2023-09-30T08:44:58;99524.14;;;21.32;32.83
75945;BME280;64628;50.104;14.614;2023-09-30T08:47:26;99522.97;;;21.54;32.29
75945;BME280;64628;50.104;14.614;2023-09-30T08:49:49;99517.30;;;21.57;32.23
75945;BME280;64628;50.104;14.614;2023-09-30T08:52:14;99521.46;;;21.68;32.28
75945;BME280;64628;50.104;14.614;2023-09-30T08:54:38;99525.78;;;22.04;31.98
75945;BME280;64628;50.104;14.614;2023-09-30T08:57:05;99529.76;;;22.57;31.08
75945;BME280;64628;50.104;14.614;2023-09-30T08:59:29;99530.71;;;22.66;30.48
75945;BME280;64628;50.104;14.614;2023-09-30T09:01:54;99530.04;;;23.02;29.82
75945;BME280;64628;50.104;14.614;2023-09-30T09:04:20;99536.16;;;23.13;28.50
75945;BME280;64628;50.104;14.614;2023-09-30T09:06:45;99533.52;;;23.42;27.69
75945;BME280;64628;50.104;14.614;2023-09-30T09:09:13;99531.98;;;23.78;27.84
75945;BME280;64628;50.104;14.614;2023-09-30T09:11:37;99528.44;;;24.25;26.95
75945;BME280;64628;50.104;14.614;2023-09-30T09:14:00;99531.95;;;24.61;26.29
75945;BME280;64628;50.104;14.614;2023-09-30T09:16:25;99533.72;;;25.03;25.83
75945;BME280;64628;50.104;14.614;2023-09-30T09:18:50;99522.89;;;25.03;25.15
75945;BME280;64628;50.104;14.614;2023-09-30T09:21:17;99516.67;;;25.33;24.51
75945;BME280;64628;50.104;14.614;2023-09-30T09:23:45;99526.45;;;26.13;24.07
75945;BME280;64628;50.104;14.614;2023-09-30T09:26:08;99535.68;;;25.60;24.55
75945;BME280;64628;50.104;14.614;2023-09-30T09:28:34;99536.72;;;25.62;23.66
75945;BME280;64628;50.104;14.614;2023-09-30T09:30:58;99537.88;;;25.68;24.32
75945;BME280;64628;50.104;14.614;2023-09-30T09:35:49;99535.25;;;25.72;23.29
75945;BME280;64628;50.104;14.614;2023-09-30T09:38:15;99544.62;;;24.92;24.15
75945;BME280;64628;50.104;14.614;2023-09-30T09:40:42;99550.30;;;24.59;23.73
75945;BME280;64628;50.104;14.614;2023-09-30T09:43:06;99551.04;;;24.60;24.50
75945;BME280;64628;50.104;14.614;2023-09-30T09:45:33;99557.30;;;24.92;24.78
75945;BME280;64628;50.104;14.614;2023-09-30T09:47:57;99558.91;;;25.55;24.35
75945;BME280;64628;50.104;14.614;2023-09-30T09:50:23;99559.79;;;25.39;23.24
75945;BME280;64628;50.104;14.614;2023-09-30T09:52:50;99552.45;;;25.58;23.92
75945;BME280;64628;50.104;14.614;2023-09-30T09:55:16;99557.23;;;25.35;23.29
75945;BME280;64628;50.104;14.614;2023-09-30T09:57:40;99554.64;;;26.02;22.94
75945;BME280;64628;50.104;14.614;2023-09-30T10:00:07;99560.32;;;25.98;23.02
75945;BME280;64628;50.104;14.614;2023-09-30T10:02:32;99559.47;;;25.93;22.55
75945;BME280;64628;50.104;14.614;2023-09-30T10:04:57;99561.00;;;26.41;22.52
75945;BME280;64628;50.104;14.614;2023-09-30T10:07:26;99564.94;;;26.45;22.50
75945;BME280;64628;50.104;14.614;2023-09-30T10:09:51;99555.88;;;26.85;21.39
75945;BME280;64628;50.104;14.614;2023-09-30T10:12:15;99552.24;;;26.49;22.64
75945;BME280;64628;50.104;14.614;2023-09-30T10:14:40;99552.77;;;26.26;22.16
75945;BME280;64628;50.104;14.614;2023-09-30T10:17:07;99551.17;;;26.75;22.10
75945;BME280;64628;50.104;14.614;2023-09-30T10:19:34;99547.68;;;26.48;21.84
75945;BME280;64628;50.104;14.614;2023-09-30T10:24:34;99543.55;;;26.24;22.41
75945;BME280;64628;50.104;14.614;2023-09-30T10:29:17;99543.74;;;25.68;23.40
75945;BME280;64628;50.104;14.614;2023-09-30T10:31:49;99546.38;;;25.51;23.43
75945;BME280;64628;50.104;14.614;2023-09-30T10:34:21;99555.17;;;25.69;23.06
75945;BME280;64628;50.104;14.614;2023-09-30T10:36:34;99554.15;;;26.36;22.74
75945;BME280;64628;50.104;14.614;2023-09-30T10:38:59;99551.22;;;25.93;22.68
75945;BME280;64628;50.104;14.614;2023-09-30T10:43:51;99548.73;;;26.30;21.42
75945;BME280;64628;50.104;14.614;2023-09-30T10:46:30;99549.46;;;26.08;21.75
75945;BME280;64628;50.104;14.614;2023-09-30T10:48:43;99545.59;;;26.48;21.70
75945;BME280;64628;50.104;14.614;2023-09-30T10:51:25;99547.43;;;26.69;20.75
75945;BME280;64628;50.104;14.614;2023-09-30T10:53:42;99540.91;;;26.51;21.06
75945;BME280;64628;50.104;14.614;2023-09-30T10:56:01;99538.87;;;26.76;21.39
75945;BME280;64628;50.104;14.614;2023-09-30T11:00:58;99545.38;;;26.75;20.33
75945;BME280;64628;50.104;14.614;2023-09-30T11:20:18;99550.31;;;26.68;20.61
75945;BME280;64628;50.104;14.614;2023-09-30T11:22:43;99548.02;;;26.96;20.36
75945;BME280;64628;50.104;14.614;2023-09-30T11:25:15;99541.80;;;26.99;20.69
75945;BME280;64628;50.104;14.614;2023-09-30T11:27:35;99544.87;;;26.62;20.73
75945;BME280;64628;50.104;14.614;2023-09-30T11:30:03;99547.59;;;26.79;21.53
75945;BME280;64628;50.104;14.614;2023-09-30T11:32:26;99543.53;;;27.14;20.73
75945;BME280;64628;50.104;14.614;2023-09-30T11:34:52;99544.00;;;26.95;20.42
75945;BME280;64628;50.104;14.614;2023-09-30T11:37:18;99536.74;;;27.29;20.23
75945;BME280;64628;50.104;14.614;2023-09-30T11:39:43;99537.88;;;27.32;19.70
75945;BME280;64628;50.104;14.614;2023-09-30T11:42:14;99531.66;;;27.51;19.25
75945;BME280;64628;50.104;14.614;2023-09-30T11:47:01;99522.46;;;27.43;19.33
75945;BME280;64628;50.104;14.614;2023-09-30T11:49:29;99519.93;;;27.21;19.90
75945;BME280;64628;50.104;14.614;2023-09-30T11:51:52;99523.47;;;27.14;20.62
75945;BME280;64628;50.104;14.614;2023-09-30T11:54:18;99526.80;;;27.04;20.16
75945;BME280;64628;50.104;14.614;2023-09-30T11:56:44;99519.09;;;26.78;19.51
75945;BME280;64628;50.104;14.614;2023-09-30T11:59:14;99523.22;;;26.67;19.76
75945;BME280;64628;50.104;14.614;2023-09-30T12:01:39;99521.14;;;26.42;20.10
75945;BME280;64628;50.104;14.614;2023-09-30T12:04:00;99516.67;;;26.23;20.73
75945;BME280;64628;50.104;14.614;2023-09-30T12:06:26;99522.88;;;25.55;20.70
75945;BME280;64628;50.104;14.614;2023-09-30T12:08:51;99523.88;;;25.49;21.28
75945;BME280;64628;50.104;14.614;2023-09-30T12:11:18;99524.35;;;25.86;20.73
75945;BME280;64628;50.104;14.614;2023-09-30T12:13:43;99519.53;;;25.50;20.83
75945;BME280;64628;50.104;14.614;2023-09-30T12:16:09;99517.69;;;25.50;21.34
75945;BME280;64628;50.104;14.614;2023-09-30T12:18:35;99518.76;;;25.55;21.03
75945;BME280;64628;50.104;14.614;2023-09-30T12:21:00;99517.74;;;25.82;20.38
75945;BME280;64628;50.104;14.614;2023-09-30T12:23:26;99515.87;;;25.98;20.45
75945;BME280;64628;50.104;14.614;2023-09-30T12:25:52;99512.50;;;25.87;21.11
75945;BME280;64628;50.104;14.614;2023-09-30T12:28:18;99511.24;;;25.93;20.63
75945;BME280;64628;50.104;14.614;2023-09-30T12:30:44;99510.37;;;26.14;20.71
75945;BME280;64628;50.104;14.614;2023-09-30T12:35:35;99505.37;;;25.72;21.10
75945;BME280;64628;50.104;14.614;2023-09-30T12:38:01;99506.09;;;25.84;21.26
75945;BME280;64628;50.104;14.614;2023-09-30T12:40:27;99508.20;;;25.92;20.84
75945;BME280;64628;50.104;14.614;2023-09-30T12:42:53;99502.33;;;25.79;20.98
75945;BME280;64628;50.104;14.614;2023-09-30T12:45:19;99496.82;;;25.84;20.65
75945;BME280;64628;50.104;14.614;2023-09-30T12:47:44;99496.82;;;25.93;20.62
75945;BME280;64628;50.104;14.614;2023-09-30T12:50:14;99497.62;;;26.24;20.45
75945;BME280;64628;50.104;14.614;2023-09-30T12:52:36;99496.53;;;26.10;20.00
75945;BME280;64628;50.104;14.614;2023-09-30T12:55:02;99497.57;;;26.24;20.00
75945;BME280;64628;50.104;14.614;2023-09-30T12:57:28;99500.31;;;26.00;20.14
75945;BME280;64628;50.104;14.614;2023-09-30T12:59:53;99497.49;;;26.12;20.31
75945;BME280;64628;50.104;14.614;2023-09-30T13:02:19;99496.37;;;26.31;20.59
75945;BME280;64628;50.104;14.614;2023-09-30T13:04:46;99492.50;;;26.42;20.19
75945;BME280;64628;50.104;14.614;2023-09-30T13:07:12;99493.45;;;26.25;20.51
75945;BME280;64628;50.104;14.614;2023-09-30T13:09:37;99492.25;;;26.35;20.33
75945;BME280;64628;50.104;14.614;2023-09-30T13:12:02;99485.88;;;26.57;19.69
75945;BME280;64628;50.104;14.614;2023-09-30T13:14:28;99485.94;;;26.54;19.54